This demonstration page uses our WeatherBlox Daily Observations layout. Learn more.

Left ArrowRight Arrow

36.19886, -115.1175

Hourly Observations for December 9, 2020

Temp ( °F °C ) Dew Point ( °F °C ) Humidity (%) Winds ( mph kmh ) Pressure ( in mb ) Visibility ( mi km ) Precip ( " mm )
12:53 am 00:53 Clear 51 10.6 12 -11.1 21 21 WNW 5 7 30.2 1023 10 16.0934 0 0
1:53 am 01:53 Clear 46 7.8 15 -9.4 29 29 WNW 5 7 30.21 1023 10 16.0934 0 0
2:53 am 02:53 Clear 43 6.1 11 -11.7 27 27 NW 7 11 30.2 1023 10 16.0934 0 0
3:53 am 03:53 Clear 44 6.7 12 -11.1 27 27 SE 5 7 30.19 1022 10 16.0934 0 0
4:53 am 04:53 Clear 42 5.6 14 -10 32 32 WNW 7 11 30.2 1023 10 16.0934 0 0
5:53 am 05:53 Clear 42 5.6 13 -10.6 30 30 WNW 6 9 30.22 1023 10 16.0934 0 0
6:53 am 06:53 Sunny 42 5.6 13 -10.6 30 30 WNW 6 9 30.22 1024 10 16.0934 0 0
7:53 am 07:53 Sunny 46 7.8 14 -10 27 27 WNW 6 9 30.23 1024 10 16.0934 0 0
8:53 am 08:53 Sunny 54 12.2 12 -11.1 19 19 Calm 30.23 1024 10 16.0934 0 0
9:53 am 09:53 Sunny 57 13.9 11 -11.7 16 16 Calm 30.21 1023 10 16.0934 0 0
10:53 am 10:53 Sunny 61 16.1 10 -12.2 13 13 VRB 3 6 30.17 1022 10 16.0934 0 0
11:53 am 11:53 Sunny 64 17.8 6 -14.4 10 10 ESE 5 7 30.11 1020 10 16.0934 0 0
12:53 pm 12:53 Sunny 65 18.3 6 -14.4 10 10 SE 3 6 30.07 1018 10 16.0934 0 0
1:53 pm 13:53 Sunny 67 19.4 7 -13.9 9 9 ESE 7 11 30.04 1017 10 16.0934 0 0
2:53 pm 14:53 Sunny 66 18.9 7 -13.9 10 10 Calm 30.02 1017 10 16.0934 0 0
3:53 pm 15:53 Sunny 65 18.3 8 -13.3 10 10 W 3 6 30.01 1016 10 16.0934 0 0
4:53 pm 16:53 Clear 62 16.7 10 -12.2 13 13 NW 3 6 30.01 1016 10 16.0934 0 0
5:53 pm 17:53 Clear 59 15 15 -9.4 18 18 W 5 7 30.01 1016 10 16.0934 0 0
6:53 pm 18:53 Clear 57 13.9 18 -7.8 22 22 WNW 5 7 30 1016 10 16.0934 0 0
7:53 pm 19:53 Clear 55 12.8 19 -7.2 24 24 Calm 30 1016 10 16.0934 0 0
8:53 pm 20:53 Clear 53 11.7 19 -7.2 26 26 NW 5 7 29.99 1016 10 16.0934 0 0
9:53 pm 21:53 Clear 54 12.2 14 -10 20 20 NW 9 15 29.97 1015 10 16.0934 0 0
10:53 pm 22:53 Mostly Clear 53 11.7 14 -10 21 21 SW 3 6 29.97 1015 10 16.0934 0 0
11:53 pm 23:53 Clear 52 11.1 15 -9.4 23 23 Calm 29.95 1014 10 16.0934 0 0

Powered by AerisWeather